Airfield :
LOGIN :

Register | Disclaimer

   EN    FR    IT 

 










Legend :    VFR   Marginal VFR   IFR   Intensive IFR   Very Intensive IFR
Visi :
Ceiling :
>= 8 km
>= 3000ft
5 to 8 km
1000 to 3000 ft
1500m to 5 km
500 to 1000 ft
800 to 1500m
200 to 500 ft
< 800m
< 200 ft
Symbols :   Thunderstorms  Fog  Heavy snow  Heavy precipitations  Wind > 20 kt
SIGMETs :     Misc.  Thunderstorms  Icing  Turbulence  Mountain Waves  Volcanic Ashes







- Airport Elevation : 194 ft


EBCV - Chièvres

CURRENT METAR :
  • 171355Z AUTO 34003KT 9999 SCT200/// BKN230/// 25/11 Q1015 BLU

EXPIRED METARs :
  • 171325Z AUTO VRB02KT 9999 NCD 25/12 Q1015 BLU
  • 171255Z AUTO 07004KT 9999 NCD 25/12 Q1015 BLU
  • 171225Z AUTO 05003KT 9999 NCD 25/12 Q1015 BLU
  • 171155Z AUTO 02003KT 9999 NCD 24/11 Q1015 BLU
  • 171125Z AUTO VRB02KT 9999 NCD 23/10 Q1016 BLU

TAF TAF EBCV
Valid from the 17 at 13:00 until the 17 at 22:00 UTC


171141Z 1713/1722 VRB03KT 9999 SCT250
TEMPO 1713/1718 FEW035 SCT250
BECMG 1718/1720 VRB04KT SCT170 BKN250 BY EBWM
No reported NOTAMs for that airfield.



MET'MAP, your aeronautical weather chart ! - Copyright ORBIFLY December 2007 - Disclaimer

ORBIFLY MET'MAP TEAM :

Programming & Development : Alexandra Zaïnal
Concept & Development : Baudouin d'Aumeries
Co-Development & Prog : Marc-Olivier Méhu
Technical & hardware support : Manuel Goepfert

Contact : metmap@orbifly.com




SOURCES & CREDITS :

   NOAA